sensor_id;sensor_type;location;lat;lon;timestamp;pressure;altitude;pressure_sealevel;temperature;humidity
44734;BME280;30462;52.446;-1.930;2024-01-27T00:00:15;101858.9023;;;;
44734;BME280;30462;52.446;-1.930;2024-01-27T00:01:14;101854.4102;;;;
44734;BME280;30462;52.446;-1.930;2024-01-27T00:02:14;101856.8672;;;;
44734;BME280;30462;52.446;-1.930;2024-01-27T00:03:14;101854.0039;;;;
44734;BME280;30462;52.446;-1.930;2024-01-27T00:04:13;101856.9063;;;;
44734;BME280;30462;52.446;-1.930;2024-01-27T00:05:13;101855.2344;;;;
44734;BME280;30462;52.446;-1.930;2024-01-27T00:06:14;101856.3633;;;;
44734;BME280;30462;52.446;-1.930;2024-01-27T00:07:14;101857.7852;;;;
44734;BME280;30462;52.446;-1.930;2024-01-27T00:08:14;101854.8555;;;;
44734;BME280;30462;52.446;-1.930;2024-01-27T00:09:14;101853.9141;;;;
44734;BME280;30462;52.446;-1.930;2024-01-27T00:10:14;101854.9961;;;;
44734;BME280;30462;52.446;-1.930;2024-01-27T00:11:14;101855.2344;;;;
44734;BME280;30462;52.446;-1.930;2024-01-27T00:12:14;101854.9258;;;;
44734;BME280;30462;52.446;-1.930;2024-01-27T00:13:14;101858.0039;;;;
44734;BME280;30462;52.446;-1.930;2024-01-27T00:14:14;101859.668;;;;
44734;BME280;30462;52.446;-1.930;2024-01-27T00:15:14;101859.3516;;;;
44734;BME280;30462;52.446;-1.930;2024-01-27T00:16:13;101861.1914;;;;
44734;BME280;30462;52.446;-1.930;2024-01-27T00:17:13;101858.9961;;;;
44734;BME280;30462;52.446;-1.930;2024-01-27T00:18:14;101863.8594;;;;
44734;BME280;30462;52.446;-1.930;2024-01-27T00:19:14;101864.4258;;;;
44734;BME280;30462;52.446;-1.930;2024-01-27T00:20:14;101865.9375;;;;
44734;BME280;30462;52.446;-1.930;2024-01-27T00:21:14;101861.332;;;;
44734;BME280;30462;52.446;-1.930;2024-01-27T00:22:14;101862.7266;;;;
44734;BME280;30462;52.446;-1.930;2024-01-27T00:23:14;101863.4648;;;;
44734;BME280;30462;52.446;-1.930;2024-01-27T00:24:14;101867.5938;;;;
44734;BME280;30462;52.446;-1.930;2024-01-27T00:25:14;101867.4844;;;;
44734;BME280;30462;52.446;-1.930;2024-01-27T00:26:14;101868.4375;;;;
44734;BME280;30462;52.446;-1.930;2024-01-27T00:27:14;101865.9141;;;;
44734;BME280;30462;52.446;-1.930;2024-01-27T00:28:14;101866.8398;;;;
44734;BME280;30462;52.446;-1.930;2024-01-27T00:29:13;101864.8242;;;;
44734;BME280;30462;52.446;-1.930;2024-01-27T00:30:14;101864.4961;;;;
44734;BME280;30462;52.446;-1.930;2024-01-27T00:31:14;101861.0977;;;;
44734;BME280;30462;52.446;-1.930;2024-01-27T00:32:14;101859.9219;;;;
44734;BME280;30462;52.446;-1.930;2024-01-27T00:33:14;101857.5195;;;;
44734;BME280;30462;52.446;-1.930;2024-01-27T00:34:14;101857.4766;;;;
44734;BME280;30462;52.446;-1.930;2024-01-27T00:35:13;101854.7461;;;;
44734;BME280;30462;52.446;-1.930;2024-01-27T00:36:14;101858.2031;;;;
44734;BME280;30462;52.446;-1.930;2024-01-27T00:37:14;101856.8672;;;;
44734;BME280;30462;52.446;-1.930;2024-01-27T00:38:14;101860.4922;;;;
44734;BME280;30462;52.446;-1.930;2024-01-27T00:39:14;101859.7305;;;;
44734;BME280;30462;52.446;-1.930;2024-01-27T00:40:14;101861.6367;;;;
44734;BME280;30462;52.446;-1.930;2024-01-27T00:42:14;101857.9688;;;;
44734;BME280;30462;52.446;-1.930;2024-01-27T00:43:13;101853.4883;;;;
44734;BME280;30462;52.446;-1.930;2024-01-27T00:44:14;101855.0625;;;;
44734;BME280;30462;52.446;-1.930;2024-01-27T00:45:14;101857.9102;;;;
44734;BME280;30462;52.446;-1.930;2024-01-27T00:46:14;101854.9648;;;;
44734;BME280;30462;52.446;-1.930;2024-01-27T00:47:14;101855.1289;;;;
44734;BME280;30462;52.446;-1.930;2024-01-27T00:48:13;101854.9063;;;;
44734;BME280;30462;52.446;-1.930;2024-01-27T00:49:14;101860.3555;;;;
44734;BME280;30462;52.446;-1.930;2024-01-27T00:50:14;101856.0234;;;;
44734;BME280;30462;52.446;-1.930;2024-01-27T00:51:14;101850.4922;;;;
44734;BME280;30462;52.446;-1.930;2024-01-27T00:52:14;101852.6563;;;;
44734;BME280;30462;52.446;-1.930;2024-01-27T00:53:14;101849.7656;;;;
44734;BME280;30462;52.446;-1.930;2024-01-27T00:54:14;101846.0352;;;;
44734;BME280;30462;52.446;-1.930;2024-01-27T00:55:14;101844.1094;;;;
44734;BME280;30462;52.446;-1.930;2024-01-27T00:56:14;101837.7969;;;;
44734;BME280;30462;52.446;-1.930;2024-01-27T00:57:14;101837.4727;;;;
44734;BME280;30462;52.446;-1.930;2024-01-27T00:58:14;101837.1289;;;;
44734;BME280;30462;52.446;-1.930;2024-01-27T00:59:14;101833.5313;;;;
44734;BME280;30462;52.446;-1.930;2024-01-27T01:00:14;101829.1523;;;;
44734;BME280;30462;52.446;-1.930;2024-01-27T01:01:14;101829.7227;;;;
44734;BME280;30462;52.446;-1.930;2024-01-27T01:02:14;101823.9258;;;;
44734;BME280;30462;52.446;-1.930;2024-01-27T01:03:14;101826.7695;;;;
44734;BME280;30462;52.446;-1.930;2024-01-27T01:04:14;101825.3086;;;;
44734;BME280;30462;52.446;-1.930;2024-01-27T01:05:14;101826.6367;;;;
44734;BME280;30462;52.446;-1.930;2024-01-27T01:06:13;101828.332;;;;
44734;BME280;30462;52.446;-1.930;2024-01-27T01:07:14;101831.3164;;;;
44734;BME280;30462;52.446;-1.930;2024-01-27T01:08:13;101834.2695;;;;
44734;BME280;30462;52.446;-1.930;2024-01-27T01:09:14;101835.3398;;;;
44734;BME280;30462;52.446;-1.930;2024-01-27T01:10:14;101839.1367;;;;
44734;BME280;30462;52.446;-1.930;2024-01-27T01:11:14;101838.4258;;;;
44734;BME280;30462;52.446;-1.930;2024-01-27T01:12:14;101839.9492;;;;
44734;BME280;30462;52.446;-1.930;2024-01-27T01:13:14;101841.3047;;;;
44734;BME280;30462;52.446;-1.930;2024-01-27T01:14:14;101841.9961;;;;
44734;BME280;30462;52.446;-1.930;2024-01-27T01:15:13;101845.0156;;;;
44734;BME280;30462;52.446;-1.930;2024-01-27T01:16:13;101842.3398;;;;
44734;BME280;30462;52.446;-1.930;2024-01-27T01:17:13;101845.6406;;;;
44734;BME280;30462;52.446;-1.930;2024-01-27T01:18:14;101842.8633;;;;
44734;BME280;30462;52.446;-1.930;2024-01-27T01:19:14;101839.2031;;;;
44734;BME280;30462;52.446;-1.930;2024-01-27T01:20:14;101840.4258;;;;
44734;BME280;30462;52.446;-1.930;2024-01-27T01:21:14;101838.7969;;;;
44734;BME280;30462;52.446;-1.930;2024-01-27T01:22:14;101837.3086;;;;
44734;BME280;30462;52.446;-1.930;2024-01-27T01:23:14;101835.4141;;;;
44734;BME280;30462;52.446;-1.930;2024-01-27T01:24:14;101831.3359;;;;
44734;BME280;30462;52.446;-1.930;2024-01-27T01:25:14;101834.8789;;;;
44734;BME280;30462;52.446;-1.930;2024-01-27T01:26:14;101831.4727;;;;
44734;BME280;30462;52.446;-1.930;2024-01-27T01:27:14;101830.0313;;;;
44734;BME280;30462;52.446;-1.930;2024-01-27T01:28:14;101826.2031;;;;
44734;BME280;30462;52.446;-1.930;2024-01-27T01:29:14;101832.5742;;;;
44734;BME280;30462;52.446;-1.930;2024-01-27T01:30:14;101829.668;;;;
44734;BME280;30462;52.446;-1.930;2024-01-27T01:31:14;101830.625;;;;
44734;BME280;30462;52.446;-1.930;2024-01-27T01:32:14;101829.0898;;;;
44734;BME280;30462;52.446;-1.930;2024-01-27T01:33:14;101828.625;;;;
44734;BME280;30462;52.446;-1.930;2024-01-27T01:34:14;101828.4063;;;;
44734;BME280;30462;52.446;-1.930;2024-01-27T01:35:14;101825.9609;;;;
44734;BME280;30462;52.446;-1.930;2024-01-27T01:36:14;101822.3516;;;;
44734;BME280;30462;52.446;-1.930;2024-01-27T01:37:14;101822.3438;;;;
44734;BME280;30462;52.446;-1.930;2024-01-27T01:38:13;101825.1211;;;;
44734;BME280;30462;52.446;-1.930;2024-01-27T01:39:14;101822.9336;;;;
44734;BME280;30462;52.446;-1.930;2024-01-27T01:40:14;101826.8672;;;;
44734;BME280;30462;52.446;-1.930;2024-01-27T01:41:14;101826.0625;;;;
44734;BME280;30462;52.446;-1.930;2024-01-27T01:42:14;101826.7148;;;;
44734;BME280;30462;52.446;-1.930;2024-01-27T01:43:14;101827.4375;;;;
44734;BME280;30462;52.446;-1.930;2024-01-27T01:44:14;101831.6328;;;;
44734;BME280;30462;52.446;-1.930;2024-01-27T01:45:14;101830.418;;;;
44734;BME280;30462;52.446;-1.930;2024-01-27T01:46:14;101829.4961;;;;
44734;BME280;30462;52.446;-1.930;2024-01-27T01:47:14;101832.1563;;;;
44734;BME280;30462;52.446;-1.930;2024-01-27T01:48:13;101835.4805;;;;
44734;BME280;30462;52.446;-1.930;2024-01-27T01:49:14;101837.9219;;;;
44734;BME280;30462;52.446;-1.930;2024-01-27T01:50:14;101833.1641;;;;
44734;BME280;30462;52.446;-1.930;2024-01-27T01:51:14;101824.0352;;;;
44734;BME280;30462;52.446;-1.930;2024-01-27T01:52:14;101823.4492;;;;
44734;BME280;30462;52.446;-1.930;2024-01-27T01:53:14;101824.332;;;;
44734;BME280;30462;52.446;-1.930;2024-01-27T01:54:14;101821.8906;;;;
44734;BME280;30462;52.446;-1.930;2024-01-27T01:55:14;101822.7617;;;;
44734;BME280;30462;52.446;-1.930;2024-01-27T01:56:15;101823;;;;
44734;BME280;30462;52.446;-1.930;2024-01-27T01:57:14;101824.4492;;;;
44734;BME280;30462;52.446;-1.930;2024-01-27T01:58:14;101821.8008;;;;
44734;BME280;30462;52.446;-1.930;2024-01-27T01:59:14;101818.6563;;;;
44734;BME280;30462;52.446;-1.930;2024-01-27T02:00:14;101821.3281;;;;
44734;BME280;30462;52.446;-1.930;2024-01-27T02:01:14;101825.1914;;;;
44734;BME280;30462;52.446;-1.930;2024-01-27T02:02:13;101819.2969;;;;
44734;BME280;30462;52.446;-1.930;2024-01-27T02:03:14;101820.5039;;;;
44734;BME280;30462;52.446;-1.930;2024-01-27T02:04:14;101819.1914;;;;
44734;BME280;30462;52.446;-1.930;2024-01-27T02:05:14;101822.1172;;;;
44734;BME280;30462;52.446;-1.930;2024-01-27T02:06:14;101826.9609;;;;
44734;BME280;30462;52.446;-1.930;2024-01-27T02:07:14;101824.3633;;;;
44734;BME280;30462;52.446;-1.930;2024-01-27T02:08:14;101829.4648;;;;
44734;BME280;30462;52.446;-1.930;2024-01-27T02:09:14;101825.9258;;;;
44734;BME280;30462;52.446;-1.930;2024-01-27T02:10:15;101828.3672;;;;
44734;BME280;30462;52.446;-1.930;2024-01-27T02:11:14;101826.9453;;;;
44734;BME280;30462;52.446;-1.930;2024-01-27T02:12:14;101832.3398;;;;
44734;BME280;30462;52.446;-1.930;2024-01-27T02:13:18;101827.0977;;;;
44734;BME280;30462;52.446;-1.930;2024-01-27T02:14:13;101824.0938;;;;
44734;BME280;30462;52.446;-1.930;2024-01-27T02:15:14;101819.1719;;;;
44734;BME280;30462;52.446;-1.930;2024-01-27T02:16:14;101820.9648;;;;
44734;BME280;30462;52.446;-1.930;2024-01-27T02:17:14;101823.2383;;;;
44734;BME280;30462;52.446;-1.930;2024-01-27T02:18:14;101824.2461;;;;
44734;BME280;30462;52.446;-1.930;2024-01-27T02:19:14;101824.2773;;;;
44734;BME280;30462;52.446;-1.930;2024-01-27T02:20:13;101829.0938;;;;
44734;BME280;30462;52.446;-1.930;2024-01-27T02:21:14;101827.2305;;;;
44734;BME280;30462;52.446;-1.930;2024-01-27T02:22:14;101828.3047;;;;
44734;BME280;30462;52.446;-1.930;2024-01-27T02:23:14;101823.6133;;;;
44734;BME280;30462;52.446;-1.930;2024-01-27T02:24:14;101825.3477;;;;
44734;BME280;30462;52.446;-1.930;2024-01-27T02:25:13;101824.2148;;;;
44734;BME280;30462;52.446;-1.930;2024-01-27T02:26:14;101819.8438;;;;
44734;BME280;30462;52.446;-1.930;2024-01-27T02:27:14;101825.082;;;;
44734;BME280;30462;52.446;-1.930;2024-01-27T02:28:14;101826.3125;;;;
44734;BME280;30462;52.446;-1.930;2024-01-27T02:29:14;101829.9141;;;;
44734;BME280;30462;52.446;-1.930;2024-01-27T02:30:14;101830.6133;;;;
44734;BME280;30462;52.446;-1.930;2024-01-27T02:31:14;101825.8438;;;;
44734;BME280;30462;52.446;-1.930;2024-01-27T02:32:14;101825.125;;;;
44734;BME280;30462;52.446;-1.930;2024-01-27T02:33:13;101827.293;;;;
44734;BME280;30462;52.446;-1.930;2024-01-27T02:34:14;101825.9648;;;;
44734;BME280;30462;52.446;-1.930;2024-01-27T02:35:14;101827.625;;;;
44734;BME280;30462;52.446;-1.930;2024-01-27T02:36:14;101826.6914;;;;
44734;BME280;30462;52.446;-1.930;2024-01-27T02:37:14;101829.3711;;;;
44734;BME280;30462;52.446;-1.930;2024-01-27T02:38:14;101827.8711;;;;
44734;BME280;30462;52.446;-1.930;2024-01-27T02:39:14;101826.2695;;;;
44734;BME280;30462;52.446;-1.930;2024-01-27T02:40:14;101826.1758;;;;
44734;BME280;30462;52.446;-1.930;2024-01-27T02:41:13;101818.9258;;;;
44734;BME280;30462;52.446;-1.930;2024-01-27T02:42:13;101823.375;;;;
44734;BME280;30462;52.446;-1.930;2024-01-27T02:43:13;101821.7305;;;;
44734;BME280;30462;52.446;-1.930;2024-01-27T02:44:14;101817.8945;;;;
44734;BME280;30462;52.446;-1.930;2024-01-27T02:45:14;101820.8555;;;;
44734;BME280;30462;52.446;-1.930;2024-01-27T02:46:14;101817.8867;;;;
44734;BME280;30462;52.446;-1.930;2024-01-27T02:47:14;101820.4961;;;;
44734;BME280;30462;52.446;-1.930;2024-01-27T02:48:14;101814.9844;;;;
44734;BME280;30462;52.446;-1.930;2024-01-27T02:49:13;101809.8516;;;;
44734;BME280;30462;52.446;-1.930;2024-01-27T02:50:14;101809.7539;;;;
44734;BME280;30462;52.446;-1.930;2024-01-27T02:51:15;101812.0547;;;;
44734;BME280;30462;52.446;-1.930;2024-01-27T02:52:13;101810.6172;;;;
44734;BME280;30462;52.446;-1.930;2024-01-27T02:53:14;101803.7852;;;;
44734;BME280;30462;52.446;-1.930;2024-01-27T02:54:14;101802.5859;;;;
44734;BME280;30462;52.446;-1.930;2024-01-27T02:55:14;101799.4414;;;;
44734;BME280;30462;52.446;-1.930;2024-01-27T02:56:15;101799.8125;;;;
44734;BME280;30462;52.446;-1.930;2024-01-27T02:57:14;101791.9141;;;;
44734;BME280;30462;52.446;-1.930;2024-01-27T02:58:14;101791.043;;;;
44734;BME280;30462;52.446;-1.930;2024-01-27T02:59:14;101791.207;;;;
44734;BME280;30462;52.446;-1.930;2024-01-27T03:00:14;101797.8984;;;;
44734;BME280;30462;52.446;-1.930;2024-01-27T03:01:14;101801.2461;;;;
44734;BME280;30462;52.446;-1.930;2024-01-27T03:02:14;101797.7617;;;;
44734;BME280;30462;52.446;-1.930;2024-01-27T03:03:14;101800.4141;;;;
44734;BME280;30462;52.446;-1.930;2024-01-27T03:04:14;101810.5977;;;;
44734;BME280;30462;52.446;-1.930;2024-01-27T03:05:14;101810.7656;;;;
44734;BME280;30462;52.446;-1.930;2024-01-27T03:06:14;101808.1484;;;;
44734;BME280;30462;52.446;-1.930;2024-01-27T03:07:14;101809.8125;;;;
44734;BME280;30462;52.446;-1.930;2024-01-27T03:08:14;101812.9258;;;;
44734;BME280;30462;52.446;-1.930;2024-01-27T03:09:14;101812.7266;;;;
44734;BME280;30462;52.446;-1.930;2024-01-27T03:10:14;101816.2656;;;;
44734;BME280;30462;52.446;-1.930;2024-01-27T03:11:13;101819.3281;;;;
44734;BME280;30462;52.446;-1.930;2024-01-27T03:12:14;101819.793;;;;
44734;BME280;30462;52.446;-1.930;2024-01-27T03:13:14;101821.7227;;;;
44734;BME280;30462;52.446;-1.930;2024-01-27T03:14:14;101826.8398;;;;
44734;BME280;30462;52.446;-1.930;2024-01-27T03:15:14;101822.8477;;;;
44734;BME280;30462;52.446;-1.930;2024-01-27T03:16:14;101824.3945;;;;
44734;BME280;30462;52.446;-1.930;2024-01-27T03:17:13;101826.4258;;;;
44734;BME280;30462;52.446;-1.930;2024-01-27T03:18:14;101819.8906;;;;
44734;BME280;30462;52.446;-1.930;2024-01-27T03:19:14;101817.1719;;;;
44734;BME280;30462;52.446;-1.930;2024-01-27T03:20:14;101817.7734;;;;
44734;BME280;30462;52.446;-1.930;2024-01-27T03:21:14;101817.0273;;;;
44734;BME280;30462;52.446;-1.930;2024-01-27T03:22:14;101811.8398;;;;
44734;BME280;30462;52.446;-1.930;2024-01-27T03:23:13;101804.7383;;;;
44734;BME280;30462;52.446;-1.930;2024-01-27T03:24:14;101808.1094;;;;
44734;BME280;30462;52.446;-1.930;2024-01-27T03:25:14;101805.7344;;;;
44734;BME280;30462;52.446;-1.930;2024-01-27T03:26:14;101806.9961;;;;
44734;BME280;30462;52.446;-1.930;2024-01-27T03:27:14;101804.0898;;;;
44734;BME280;30462;52.446;-1.930;2024-01-27T03:28:14;101801.3555;;;;
44734;BME280;30462;52.446;-1.930;2024-01-27T03:29:14;101797.3008;;;;
44734;BME280;30462;52.446;-1.930;2024-01-27T03:30:13;101795.4023;;;;
44734;BME280;30462;52.446;-1.930;2024-01-27T03:31:14;101800.2383;;;;
44734;BME280;30462;52.446;-1.930;2024-01-27T03:32:14;101803.8828;;;;
44734;BME280;30462;52.446;-1.930;2024-01-27T03:33:14;101808.9492;;;;
44734;BME280;30462;52.446;-1.930;2024-01-27T03:34:14;101811.8203;;;;
44734;BME280;30462;52.446;-1.930;2024-01-27T03:35:14;101810.4336;;;;
44734;BME280;30462;52.446;-1.930;2024-01-27T03:36:14;101810.6914;;;;
44734;BME280;30462;52.446;-1.930;2024-01-27T03:37:13;101810.9727;;;;
44734;BME280;30462;52.446;-1.930;2024-01-27T03:38:14;101815.4375;;;;
44734;BME280;30462;52.446;-1.930;2024-01-27T03:39:14;101818.1719;;;;
44734;BME280;30462;52.446;-1.930;2024-01-27T03:40:14;101814.4375;;;;
44734;BME280;30462;52.446;-1.930;2024-01-27T03:41:13;101813.8359;;;;
44734;BME280;30462;52.446;-1.930;2024-01-27T03:42:14;101808.6953;;;;
44734;BME280;30462;52.446;-1.930;2024-01-27T03:43:14;101811.3086;;;;
44734;BME280;30462;52.446;-1.930;2024-01-27T03:44:14;101811.1289;;;;
44734;BME280;30462;52.446;-1.930;2024-01-27T03:45:14;101810.3555;;;;
44734;BME280;30462;52.446;-1.930;2024-01-27T03:46:14;101812.6367;;;;
44734;BME280;30462;52.446;-1.930;2024-01-27T03:47:14;101815.2813;;;;
44734;BME280;30462;52.446;-1.930;2024-01-27T03:48:14;101810.3164;;;;
44734;BME280;30462;52.446;-1.930;2024-01-27T03:49:13;101810.7383;;;;
44734;BME280;30462;52.446;-1.930;2024-01-27T03:50:13;101810.9531;;;;
44734;BME280;30462;52.446;-1.930;2024-01-27T03:51:13;101808.3789;;;;
44734;BME280;30462;52.446;-1.930;2024-01-27T03:52:14;101808.875;;;;
44734;BME280;30462;52.446;-1.930;2024-01-27T03:53:14;101808.4922;;;;
44734;BME280;30462;52.446;-1.930;2024-01-27T03:54:14;101812.4688;;;;
44734;BME280;30462;52.446;-1.930;2024-01-27T03:55:14;101808.8164;;;;
44734;BME280;30462;52.446;-1.930;2024-01-27T03:56:14;101805.082;;;;
44734;BME280;30462;52.446;-1.930;2024-01-27T03:57:13;101805.6758;;;;
44734;BME280;30462;52.446;-1.930;2024-01-27T03:58:13;101806.8203;;;;
44734;BME280;30462;52.446;-1.930;2024-01-27T03:59:14;101809.7734;;;;
44734;BME280;30462;52.446;-1.930;2024-01-27T04:00:14;101807.4336;;;;
44734;BME280;30462;52.446;-1.930;2024-01-27T04:01:14;101808.5039;;;;
44734;BME280;30462;52.446;-1.930;2024-01-27T04:02:14;101811.1797;;;;
44734;BME280;30462;52.446;-1.930;2024-01-27T04:03:14;101807.2734;;;;
44734;BME280;30462;52.446;-1.930;2024-01-27T04:04:14;101802.8633;;;;
44734;BME280;30462;52.446;-1.930;2024-01-27T04:05:14;101797.5195;;;;
44734;BME280;30462;52.446;-1.930;2024-01-27T04:06:13;101799.6406;;;;
44734;BME280;30462;52.446;-1.930;2024-01-27T04:07:14;101797.9453;;;;
44734;BME280;30462;52.446;-1.930;2024-01-27T04:08:14;101794.1641;;;;
44734;BME280;30462;52.446;-1.930;2024-01-27T04:09:15;101788.3984;;;;
44734;BME280;30462;52.446;-1.930;2024-01-27T04:10:14;101785.7227;;;;
44734;BME280;30462;52.446;-1.930;2024-01-27T04:12:14;101790.7188;;;;
44734;BME280;30462;52.446;-1.930;2024-01-27T04:13:14;101786.25;;;;
44734;BME280;30462;52.446;-1.930;2024-01-27T04:14:14;101787.793;;;;
44734;BME280;30462;52.446;-1.930;2024-01-27T04:15:14;101792.0313;;;;
44734;BME280;30462;52.446;-1.930;2024-01-27T04:16:14;101783.418;;;;
44734;BME280;30462;52.446;-1.930;2024-01-27T04:17:14;101780.0977;;;;
44734;BME280;30462;52.446;-1.930;2024-01-27T04:18:13;101773.1133;;;;
44734;BME280;30462;52.446;-1.930;2024-01-27T04:19:13;101769.2422;;;;
44734;BME280;30462;52.446;-1.930;2024-01-27T04:20:14;101767.293;;;;
44734;BME280;30462;52.446;-1.930;2024-01-27T04:21:14;101766.7539;;;;
44734;BME280;30462;52.446;-1.930;2024-01-27T04:22:14;101767.9727;;;;
44734;BME280;30462;52.446;-1.930;2024-01-27T04:23:14;101767.0781;;;;
44734;BME280;30462;52.446;-1.930;2024-01-27T04:24:14;101763.1719;;;;
44734;BME280;30462;52.446;-1.930;2024-01-27T04:25:14;101760.7461;;;;
44734;BME280;30462;52.446;-1.930;2024-01-27T04:26:14;101761.1172;;;;
44734;BME280;30462;52.446;-1.930;2024-01-27T04:27:14;101760.6836;;;;
44734;BME280;30462;52.446;-1.930;2024-01-27T04:28:14;101761.7852;;;;
44734;BME280;30462;52.446;-1.930;2024-01-27T04:29:14;101760.6953;;;;
44734;BME280;30462;52.446;-1.930;2024-01-27T04:30:14;101761.9922;;;;
44734;BME280;30462;52.446;-1.930;2024-01-27T04:31:14;101764.5156;;;;
44734;BME280;30462;52.446;-1.930;2024-01-27T04:32:13;101771.8711;;;;
44734;BME280;30462;52.446;-1.930;2024-01-27T04:33:14;101774.8008;;;;
44734;BME280;30462;52.446;-1.930;2024-01-27T04:34:14;101774.6289;;;;
44734;BME280;30462;52.446;-1.930;2024-01-27T04:35:14;101776.2031;;;;
44734;BME280;30462;52.446;-1.930;2024-01-27T04:36:14;101772.8789;;;;
44734;BME280;30462;52.446;-1.930;2024-01-27T04:37:14;101768.7031;;;;
44734;BME280;30462;52.446;-1.930;2024-01-27T04:38:14;101762.5586;;;;
44734;BME280;30462;52.446;-1.930;2024-01-27T04:39:14;101759.1055;;;;
44734;BME280;30462;52.446;-1.930;2024-01-27T04:40:14;101749.7305;;;;
44734;BME280;30462;52.446;-1.930;2024-01-27T04:41:14;101745.6719;;;;
44734;BME280;30462;52.446;-1.930;2024-01-27T04:42:14;101751.3203;;;;
44734;BME280;30462;52.446;-1.930;2024-01-27T04:43:14;101748.6836;;;;
44734;BME280;30462;52.446;-1.930;2024-01-27T04:44:13;101749.582;;;;
44734;BME280;30462;52.446;-1.930;2024-01-27T04:45:14;101757.7461;;;;
44734;BME280;30462;52.446;-1.930;2024-01-27T04:46:14;101756.9297;;;;
44734;BME280;30462;52.446;-1.930;2024-01-27T04:47:14;101755.4531;;;;
44734;BME280;30462;52.446;-1.930;2024-01-27T04:48:14;101755.6211;;;;
44734;BME280;30462;52.446;-1.930;2024-01-27T04:49:14;101754.2266;;;;
44734;BME280;30462;52.446;-1.930;2024-01-27T04:50:14;101761.0508;;;;
44734;BME280;30462;52.446;-1.930;2024-01-27T04:51:14;101759.0898;;;;
44734;BME280;30462;52.446;-1.930;2024-01-27T04:52:14;101763.1875;;;;
44734;BME280;30462;52.446;-1.930;2024-01-27T04:53:14;101764.7578;;;;
44734;BME280;30462;52.446;-1.930;2024-01-27T04:54:14;101762.5664;;;;
44734;BME280;30462;52.446;-1.930;2024-01-27T04:55:14;101766.8789;;;;
44734;BME280;30462;52.446;-1.930;2024-01-27T04:56:14;101763.7617;;;;
44734;BME280;30462;52.446;-1.930;2024-01-27T04:57:14;101757.582;;;;
44734;BME280;30462;52.446;-1.930;2024-01-27T04:58:14;101760.5039;;;;
44734;BME280;30462;52.446;-1.930;2024-01-27T04:59:14;101754.1563;;;;
44734;BME280;30462;52.446;-1.930;2024-01-27T05:00:14;101756.9609;;;;
44734;BME280;30462;52.446;-1.930;2024-01-27T05:01:14;101750.8945;;;;
44734;BME280;30462;52.446;-1.930;2024-01-27T05:02:14;101749.457;;;;
44734;BME280;30462;52.446;-1.930;2024-01-27T05:03:14;101748.9688;;;;
44734;BME280;30462;52.446;-1.930;2024-01-27T05:04:13;101752.4961;;;;
44734;BME280;30462;52.446;-1.930;2024-01-27T05:05:14;101756.7773;;;;
44734;BME280;30462;52.446;-1.930;2024-01-27T05:06:14;101746.5;;;;
44734;BME280;30462;52.446;-1.930;2024-01-27T05:07:14;101745.3125;;;;
44734;BME280;30462;52.446;-1.930;2024-01-27T05:08:14;101745.0977;;;;
44734;BME280;30462;52.446;-1.930;2024-01-27T05:09:13;101745.2188;;;;
44734;BME280;30462;52.446;-1.930;2024-01-27T05:10:15;101747.4727;;;;
44734;BME280;30462;52.446;-1.930;2024-01-27T05:11:15;101748.7695;;;;
44734;BME280;30462;52.446;-1.930;2024-01-27T05:12:14;101750.1563;;;;
44734;BME280;30462;52.446;-1.930;2024-01-27T05:13:14;101748.457;;;;
44734;BME280;30462;52.446;-1.930;2024-01-27T05:14:13;101743.8906;;;;
44734;BME280;30462;52.446;-1.930;2024-01-27T05:15:14;101738.7344;;;;
44734;BME280;30462;52.446;-1.930;2024-01-27T05:16:14;101735.6523;;;;
44734;BME280;30462;52.446;-1.930;2024-01-27T05:17:14;101732.2773;;;;
44734;BME280;30462;52.446;-1.930;2024-01-27T05:18:14;101734.3281;;;;
44734;BME280;30462;52.446;-1.930;2024-01-27T05:19:13;101733.957;;;;
44734;BME280;30462;52.446;-1.930;2024-01-27T05:20:14;101733.9141;;;;
44734;BME280;30462;52.446;-1.930;2024-01-27T05:21:14;101731.1992;;;;
44734;BME280;30462;52.446;-1.930;2024-01-27T05:22:14;101728.3359;;;;
44734;BME280;30462;52.446;-1.930;2024-01-27T05:23:14;101731.6172;;;;
44734;BME280;30462;52.446;-1.930;2024-01-27T05:24:13;101731.1172;;;;
44734;BME280;30462;52.446;-1.930;2024-01-27T05:25:14;101724.3711;;;;
44734;BME280;30462;52.446;-1.930;2024-01-27T05:26:14;101731.9492;;;;
44734;BME280;30462;52.446;-1.930;2024-01-27T05:27:14;101738.2383;;;;
44734;BME280;30462;52.446;-1.930;2024-01-27T05:28:14;101746.7344;;;;
44734;BME280;30462;52.446;-1.930;2024-01-27T05:29:14;101750.4453;;;;
44734;BME280;30462;52.446;-1.930;2024-01-27T05:30:15;101754.1055;;;;
44734;BME280;30462;52.446;-1.930;2024-01-27T05:31:14;101755.8672;;;;
44734;BME280;30462;52.446;-1.930;2024-01-27T05:32:14;101757.1172;;;;
44734;BME280;30462;52.446;-1.930;2024-01-27T05:33:14;101756.8125;;;;
44734;BME280;30462;52.446;-1.930;2024-01-27T05:34:13;101760.4609;;;;
44734;BME280;30462;52.446;-1.930;2024-01-27T05:35:14;101765.7695;;;;
44734;BME280;30462;52.446;-1.930;2024-01-27T05:36:14;101765.7773;;;;
44734;BME280;30462;52.446;-1.930;2024-01-27T05:37:14;101767.1406;;;;
44734;BME280;30462;52.446;-1.930;2024-01-27T05:38:14;101763.3477;;;;
44734;BME280;30462;52.446;-1.930;2024-01-27T05:39:14;101764.625;;;;
44734;BME280;30462;52.446;-1.930;2024-01-27T05:40:14;101768.3945;;;;
44734;BME280;30462;52.446;-1.930;2024-01-27T05:41:14;101768.0234;;;;
44734;BME280;30462;52.446;-1.930;2024-01-27T05:42:14;101771.9844;;;;
44734;BME280;30462;52.446;-1.930;2024-01-27T05:43:14;101773.6016;;;;
44734;BME280;30462;52.446;-1.930;2024-01-27T05:44:14;101773.168;;;;
44734;BME280;30462;52.446;-1.930;2024-01-27T05:45:13;101778.707;;;;
44734;BME280;30462;52.446;-1.930;2024-01-27T05:46:14;101777.793;;;;
44734;BME280;30462;52.446;-1.930;2024-01-27T05:47:14;101774.082;;;;